Legend :    VFR   Marginal VFR   IFR   Intensive IFR   Very Intensive IFR
Visi :
Ceiling :
>= 8 km
>= 3000ft
5 to 8 km
1000 to 3000 ft
1500m to 5 km
500 to 1000 ft
800 to 1500m
200 to 500 ft
< 800m
< 200 ft
Symbols :   Thunderstorms  Fog  Heavy snow  Heavy precipitations  Wind > 20 kt
SIGMETs :     Misc.  Thunderstorms  Icing  Turbulence  Mountain Waves  Volcanic Ashes







- Airport Elevation : 876 ft
- IATA code : MBX


LJMB - Maribor

CURRENT METAR :
  • 210900Z 35002KT CAVOK 26/16 Q1012

EXPIRED METARs :
  • 210830Z 26001KT CAVOK 25/17 Q1012
  • 210800Z 14003KT 080V220 CAVOK 24/16 Q1013
  • 210730Z VRB02KT CAVOK 23/16 Q1013
  • 210700Z VRB01KT CAVOK 22/16 Q1013
  • 210630Z VRB01KT CAVOK 20/15 Q1012

TAF TAF LJMB
Valid from the 21 at 09:00 until the 22 at 09:00 UTC


210800Z 2109/2209 VRB02KT CAVOK
BECMG 2109/2110 18005KT FEW040 SCT100
PROB40
TEMPO 2110/2124 VRB20G30KT 4000 TSRA SCT040CB BKN050
BECMG 2117/2118 VRB02KT
BECMG 2200/2203 36005KT
No reported NOTAMs for that airfield.


LOGIN :  

Disclaimer |     EN      FR      IT 



MET'MAP, your aeronautical weather chart ! - Copyright ORBIFLY December 2007 - Disclaimer


ORBIFLY MET'MAP TEAM :

Programming & Development : Alexandra Zaïnal
Concept & Development : Baudouin d'Aumeries
Co-Development & Prog : Marc-Olivier Méhu
Technical & hardware support : Manuel Goepfert

Contact : metmap@orbifly.com




SOURCES & CREDITS :

   NOAA